createdAt,value
2023-05-10T00:00:21.364Z,71.30
2023-05-10T00:02:52.891Z,71.00
2023-05-10T00:05:26.856Z,71.10
2023-05-10T00:07:56.098Z,71.20
2023-05-10T00:10:25.030Z,71.30
2023-05-10T00:12:54.473Z,71.50
2023-05-10T00:15:28.549Z,71.60
2023-05-10T00:17:58.263Z,71.80
2023-05-10T00:20:27.357Z,72.00
2023-05-10T00:22:56.604Z,72.00
2023-05-10T00:25:25.718Z,72.30
2023-05-10T00:27:58.089Z,72.30
2023-05-10T00:30:25.320Z,72.50
2023-05-10T00:32:54.683Z,72.60
2023-05-10T00:35:22.784Z,72.70
2023-05-10T00:37:56.395Z,72.80
2023-05-10T00:40:29.523Z,72.90
2023-05-10T00:43:02.405Z,72.90
2023-05-10T00:45:30.942Z,72.90
2023-05-10T00:48:06.381Z,72.90
2023-05-10T00:50:39.697Z,72.90
2023-05-10T00:53:10.095Z,72.80
2023-05-10T00:55:38.088Z,72.90
2023-05-10T00:58:10.611Z,72.80
2023-05-10T01:00:44.885Z,72.90
2023-05-10T01:03:14.041Z,73.00
2023-05-10T01:05:43.413Z,73.00
2023-05-10T01:08:10.237Z,73.00
2023-05-10T01:10:37.199Z,73.00
2023-05-10T01:13:08.673Z,73.10
2023-05-10T01:15:38.847Z,73.10
2023-05-10T01:18:10.301Z,73.10
2023-05-10T01:20:48.163Z,73.10
2023-05-10T01:24:13.826Z,73.10
2023-05-10T01:27:16.784Z,73.80
2023-05-10T01:30:36.104Z,73.30
2023-05-10T01:33:20.615Z,73.40
2023-05-10T01:35:50.397Z,73.10
2023-05-10T01:38:48.388Z,73.10
2023-05-10T01:41:36.891Z,73.20
2023-05-10T01:44:29.934Z,73.40
2023-05-10T01:47:23.367Z,73.40
2023-05-10T01:50:02.333Z,73.40
2023-05-10T01:52:42.108Z,73.20
2023-05-10T01:55:21.712Z,73.10
2023-05-10T01:58:00.906Z,73.50
2023-05-10T02:00:37.549Z,73.30
2023-05-10T02:03:09.750Z,73.30
2023-05-10T02:05:42.941Z,73.40
2023-05-10T02:08:18.480Z,73.50
2023-05-10T02:10:47.920Z,73.40
2023-05-10T02:13:17.673Z,73.50
2023-05-10T02:15:48.279Z,73.50
2023-05-10T02:18:16.883Z,73.50
2023-05-10T02:20:50.018Z,73.60
2023-05-10T02:23:19.752Z,73.60
2023-05-10T02:25:49.049Z,73.70
2023-05-10T02:28:16.773Z,73.70
2023-05-10T02:30:48.431Z,73.70
2023-05-10T02:33:20.995Z,73.70
2023-05-10T02:35:49.486Z,73.70
2023-05-10T02:38:19.883Z,73.60
2023-05-10T02:40:51.269Z,73.60
2023-05-10T02:43:29.146Z,73.50
2023-05-10T02:45:56.931Z,73.70
2023-05-10T02:48:26.365Z,73.40
2023-05-10T02:50:59.363Z,73.30
2023-05-10T02:53:34.064Z,73.40
2023-05-10T02:56:08.740Z,73.60
2023-05-10T02:58:38.133Z,73.50
2023-05-10T03:01:08.689Z,73.40
2023-05-10T03:03:38.810Z,73.50
2023-05-10T03:06:07.964Z,73.50
2023-05-10T03:08:37.472Z,73.50
2023-05-10T03:11:26.625Z,73.50
2023-05-10T03:14:24.857Z,73.50
2023-05-10T03:17:29.132Z,73.90
2023-05-10T03:20:07.345Z,74.20
2023-05-10T03:22:53.128Z,73.80
2023-05-10T03:25:23.739Z,74.10
2023-05-10T03:27:56.228Z,73.80
2023-05-10T03:30:25.664Z,73.70
2023-05-10T03:32:52.650Z,73.60
2023-05-10T03:35:19.585Z,73.70
2023-05-10T03:37:49.833Z,73.60
2023-05-10T03:40:17.121Z,73.70
2023-05-10T03:42:46.568Z,73.70
2023-05-10T03:45:17.829Z,74.20
2023-05-10T03:47:44.831Z,73.60
2023-05-10T03:50:14.261Z,73.70
2023-05-10T03:52:42.060Z,73.70
2023-05-10T03:55:11.526Z,73.70
2023-05-10T03:57:41.029Z,73.70
2023-05-10T04:00:11.197Z,73.80
2023-05-10T04:02:44.023Z,73.70
2023-05-10T04:05:19.685Z,73.90
2023-05-10T04:07:52.001Z,73.80
2023-05-10T04:10:22.139Z,73.90
2023-05-10T04:12:49.121Z,73.90
2023-05-10T04:15:20.808Z,73.80
2023-05-10T04:17:51.302Z,73.90
2023-05-10T04:20:18.542Z,74.00
2023-05-10T04:22:45.436Z,74.00
2023-05-10T04:25:12.561Z,74.00
2023-05-10T04:27:41.733Z,74.00
2023-05-10T04:30:09.209Z,74.00
2023-05-10T04:32:36.087Z,73.90
2023-05-10T04:35:05.655Z,73.90
2023-05-10T04:37:34.598Z,73.90
2023-05-10T04:40:04.844Z,73.80
2023-05-10T04:42:31.643Z,73.90
2023-05-10T04:45:00.649Z,73.90
2023-05-10T04:47:29.858Z,73.90
2023-05-10T04:49:56.678Z,74.00
2023-05-10T04:52:23.562Z,74.00
2023-05-10T04:54:52.943Z,74.00
2023-05-10T04:57:19.751Z,74.00
2023-05-10T04:59:48.025Z,74.10
2023-05-10T05:02:21.265Z,74.10
2023-05-10T05:04:51.036Z,74.20
2023-05-10T05:07:17.932Z,74.10
2023-05-10T05:09:44.880Z,74.10
2023-05-10T05:12:14.891Z,74.10
2023-05-10T05:14:44.331Z,74.10
2023-05-10T05:17:14.044Z,74.20
2023-05-10T05:19:43.507Z,74.10
2023-05-10T05:22:12.646Z,74.10
2023-05-10T05:24:42.448Z,74.00
2023-05-10T05:27:13.796Z,74.00
2023-05-10T05:29:40.622Z,74.00
2023-05-10T05:32:09.348Z,73.90
2023-05-10T05:34:38.614Z,73.90
2023-05-10T05:37:07.643Z,74.00
2023-05-10T05:39:37.501Z,74.00
2023-05-10T05:42:06.635Z,73.90
2023-05-10T05:44:33.435Z,73.80
2023-05-10T05:47:02.698Z,73.80
2023-05-10T05:49:34.197Z,73.90
2023-05-10T05:52:05.426Z,73.90
2023-05-10T05:54:32.843Z,73.90
2023-05-10T05:57:02.138Z,74.60
2023-05-10T05:59:29.152Z,74.10
2023-05-10T06:01:58.382Z,73.90
2023-05-10T06:04:25.353Z,74.00
2023-05-10T06:06:52.309Z,73.90
2023-05-10T06:09:22.283Z,73.90
2023-05-10T06:11:51.466Z,73.90
2023-05-10T06:14:20.896Z,74.00
2023-05-10T06:16:50.266Z,74.00
2023-05-10T06:19:19.549Z,74.00
2023-05-10T06:21:48.977Z,73.90
2023-05-10T06:24:17.871Z,74.00
2023-05-10T06:26:44.729Z,74.00
2023-05-10T06:29:13.996Z,74.00
2023-05-10T06:31:43.074Z,74.00
2023-05-10T06:34:10.166Z,73.90
2023-05-10T06:36:36.932Z,73.80
2023-05-10T06:39:06.609Z,73.70
2023-05-10T06:41:35.769Z,73.80
2023-05-10T06:44:07.219Z,73.80
2023-05-10T06:46:36.453Z,73.80
2023-05-10T06:49:08.750Z,73.90
2023-05-10T06:51:37.626Z,73.90
2023-05-10T06:54:04.475Z,73.70
2023-05-10T06:56:36.200Z,73.80
2023-05-10T06:59:03.803Z,73.80
2023-05-10T07:01:30.694Z,73.80
2023-05-10T07:03:57.559Z,73.80
2023-05-10T07:06:33.415Z,74.10
2023-05-10T07:09:06.288Z,73.70
2023-05-10T07:11:35.480Z,73.70
2023-05-10T07:14:04.468Z,73.80
2023-05-10T07:16:34.530Z,73.80
2023-05-10T07:19:03.590Z,73.70
2023-05-10T07:21:33.198Z,73.60
2023-05-10T07:24:01.188Z,73.40
2023-05-10T07:26:30.548Z,73.20
2023-05-10T07:28:57.481Z,73.20
2023-05-10T07:31:26.845Z,73.10
2023-05-10T07:33:55.910Z,73.10
2023-05-10T07:36:22.714Z,73.10
2023-05-10T07:38:50.426Z,73.20
2023-05-10T07:41:19.480Z,73.10
2023-05-10T07:43:48.428Z,72.90
2023-05-10T07:46:17.494Z,72.90
2023-05-10T07:48:44.425Z,72.90
2023-05-10T07:51:15.613Z,72.90
2023-05-10T07:53:47.122Z,72.90
2023-05-10T07:56:30.332Z,72.90
2023-05-10T07:58:57.739Z,72.70
2023-05-10T08:01:27.346Z,72.70
2023-05-10T08:03:56.875Z,72.70
2023-05-10T08:06:29.430Z,72.80
2023-05-10T08:09:00.918Z,72.90
2023-05-10T08:11:31.255Z,73.00
2023-05-10T08:13:58.453Z,72.90
2023-05-10T08:16:27.639Z,72.90
2023-05-10T08:19:01.573Z,72.90
2023-05-10T08:21:32.223Z,72.90
2023-05-10T08:23:59.147Z,72.80
2023-05-10T08:26:26.883Z,72.80
2023-05-10T08:28:55.799Z,72.70
2023-05-10T08:31:27.110Z,72.70
2023-05-10T08:33:58.597Z,72.70
2023-05-10T08:36:25.545Z,72.50
2023-05-10T08:38:53.096Z,72.50
2023-05-10T08:41:26.661Z,72.60
2023-05-10T08:43:56.058Z,72.40
2023-05-10T08:46:24.241Z,72.20
2023-05-10T08:48:55.752Z,72.10
2023-05-10T08:51:29.207Z,71.90
2023-05-10T08:54:01.551Z,71.80
2023-05-10T08:56:28.670Z,71.70
2023-05-10T08:58:58.095Z,71.40
2023-05-10T09:01:27.826Z,71.30
2023-05-10T09:04:03.877Z,71.10
2023-05-10T09:06:33.471Z,71.00
2023-05-10T09:09:01.332Z,71.00
2023-05-10T09:11:30.020Z,70.90
2023-05-10T09:14:04.382Z,70.80
2023-05-10T09:16:31.330Z,70.70
2023-05-10T09:18:58.302Z,70.80
2023-05-10T09:21:31.647Z,71.00
2023-05-10T09:24:10.385Z,71.10
2023-05-10T09:26:51.097Z,71.40
2023-05-10T09:29:18.378Z,71.70
2023-05-10T09:31:55.742Z,71.70
2023-05-10T09:34:36.372Z,71.70
2023-05-10T09:37:05.385Z,71.60
2023-05-10T09:39:39.649Z,71.40
2023-05-10T09:42:13.301Z,71.50
2023-05-10T09:44:44.293Z,71.70
2023-05-10T09:47:19.921Z,71.50
2023-05-10T09:49:56.167Z,71.60
2023-05-10T09:52:51.577Z,71.60
2023-05-10T09:55:21.582Z,71.80
2023-05-10T09:58:03.430Z,71.80
2023-05-10T10:00:41.135Z,72.00
2023-05-10T10:03:17.188Z,72.10
2023-05-10T10:05:45.758Z,71.70
2023-05-10T10:08:15.722Z,71.70
2023-05-10T10:10:45.644Z,71.70
2023-05-10T10:13:12.746Z,71.60
2023-05-10T10:15:40.097Z,71.30
2023-05-10T10:18:07.839Z,71.20
2023-05-10T10:20:38.693Z,70.90
2023-05-10T10:23:09.592Z,70.80
2023-05-10T10:25:36.915Z,70.60
2023-05-10T10:28:35.117Z,70.50
2023-05-10T10:31:36.126Z,70.40
2023-05-10T10:34:09.620Z,70.30
2023-05-10T10:36:48.052Z,70.50
2023-05-10T10:39:16.161Z,70.10
2023-05-10T10:41:57.803Z,71.00
2023-05-10T10:44:25.963Z,70.30
2023-05-10T10:47:30.515Z,70.30
2023-05-10T10:50:08.978Z,69.80
2023-05-10T10:52:44.619Z,69.80
2023-05-10T10:55:15.951Z,69.90
2023-05-10T10:58:01.312Z,69.80
2023-05-10T11:00:37.226Z,69.40
2023-05-10T11:03:08.400Z,69.30
2023-05-10T11:05:47.460Z,69.10
2023-05-10T11:08:28.220Z,69.30
2023-05-10T11:11:01.222Z,69.30
2023-05-10T11:13:49.971Z,69.50
2023-05-10T11:16:21.683Z,69.60
2023-05-10T11:19:19.112Z,69.70
2023-05-10T11:22:17.831Z,69.70
2023-05-10T11:24:59.475Z,69.90
2023-05-10T11:27:26.630Z,70.00
2023-05-10T11:29:55.881Z,70.20
2023-05-10T11:32:25.486Z,70.20
2023-05-10T11:34:54.546Z,70.10
2023-05-10T11:37:23.552Z,70.10
2023-05-10T11:39:55.786Z,70.10
2023-05-10T11:42:22.710Z,70.00
2023-05-10T11:44:52.673Z,70.00
2023-05-10T11:47:24.790Z,69.90
2023-05-10T11:49:53.136Z,69.70
2023-05-10T11:52:20.872Z,69.30
2023-05-10T11:54:54.498Z,69.40
2023-05-10T11:57:29.468Z,69.20
2023-05-10T11:59:58.775Z,69.10
2023-05-10T12:02:30.684Z,68.80
2023-05-10T12:05:01.440Z,68.80
2023-05-10T12:07:28.510Z,68.80
2023-05-10T12:10:13.236Z,68.70
2023-05-10T12:12:45.601Z,68.50
2023-05-10T12:15:24.636Z,68.80
2023-05-10T12:17:57.249Z,68.50
2023-05-10T12:20:28.900Z,68.60
2023-05-10T12:23:00.709Z,68.30
2023-05-10T12:25:35.786Z,68.50
2023-05-10T12:28:07.523Z,68.40
2023-05-10T12:30:37.665Z,68.60
2023-05-10T12:33:14.144Z,68.70
2023-05-10T12:35:54.494Z,68.80
2023-05-10T12:38:44.128Z,69.00
2023-05-10T12:41:16.431Z,68.70
2023-05-10T12:43:43.484Z,68.80
2023-05-10T12:46:15.266Z,69.00
2023-05-10T12:48:47.098Z,68.90
2023-05-10T12:51:22.902Z,69.40
2023-05-10T12:53:56.797Z,68.80
2023-05-10T12:56:25.852Z,68.10
2023-05-10T12:58:55.278Z,67.30
2023-05-10T13:01:27.125Z,66.70
2023-05-10T13:03:57.090Z,66.50
2023-05-10T13:06:26.307Z,66.20
2023-05-10T13:08:55.710Z,65.90
2023-05-10T13:11:22.731Z,64.90
2023-05-10T13:13:51.635Z,64.80
2023-05-10T13:16:18.530Z,64.40
2023-05-10T13:18:47.896Z,63.90
2023-05-10T13:21:19.409Z,63.60
2023-05-10T13:23:47.402Z,62.90
2023-05-10T13:26:16.249Z,63.40
2023-05-10T13:28:46.829Z,63.20
2023-05-10T13:31:13.629Z,63.40
2023-05-10T13:33:40.579Z,63.30
2023-05-10T13:36:08.041Z,63.30
2023-05-10T13:38:37.026Z,62.40
2023-05-10T13:41:08.952Z,62.40
2023-05-10T13:43:38.197Z,61.70
2023-05-10T13:46:05.121Z,61.40
2023-05-10T13:48:32.267Z,61.10
2023-05-10T13:51:01.568Z,61.00
2023-05-10T13:53:28.498Z,60.90
2023-05-10T13:55:59.855Z,60.90
2023-05-10T13:58:31.382Z,60.80
2023-05-10T14:00:58.215Z,60.60
2023-05-10T14:03:25.337Z,60.60
2023-05-10T14:05:52.263Z,60.60
2023-05-10T14:08:24.071Z,60.50
2023-05-10T14:10:51.657Z,60.50
2023-05-10T14:13:20.938Z,60.50
2023-05-10T14:15:49.921Z,60.20
2023-05-10T14:18:16.883Z,60.20
2023-05-10T14:20:46.351Z,60.10
2023-05-10T14:23:15.477Z,59.90
2023-05-10T14:25:42.425Z,60.00
2023-05-10T14:28:14.340Z,59.40
2023-05-10T14:30:46.148Z,59.40
2023-05-10T14:33:13.392Z,59.20
2023-05-10T14:35:46.039Z,59.10
2023-05-10T14:38:13.455Z,58.80
2023-05-10T14:40:43.581Z,58.30
2023-05-10T14:43:10.502Z,57.90
2023-05-10T14:45:42.347Z,57.60
2023-05-10T14:48:16.418Z,57.30
2023-05-10T14:50:43.299Z,57.10
2023-05-10T14:53:10.783Z,57.20
2023-05-10T14:55:40.308Z,57.30
2023-05-10T14:58:09.482Z,56.70
2023-05-10T15:00:36.398Z,56.50
2023-05-10T15:03:04.428Z,56.50
2023-05-10T15:05:38.399Z,56.50
2023-05-10T15:08:06.623Z,56.70
2023-05-10T15:10:38.128Z,56.60
2023-05-10T15:13:09.613Z,56.20
2023-05-10T15:15:41.164Z,56.10
2023-05-10T15:18:10.938Z,55.60
2023-05-10T15:20:38.015Z,55.30
2023-05-10T15:23:09.104Z,55.20
2023-05-10T15:25:37.977Z,55.10
2023-05-10T15:28:05.807Z,54.90
2023-05-10T15:30:34.798Z,54.80
2023-05-10T15:33:01.749Z,54.80
2023-05-10T15:35:30.966Z,54.60
2023-05-10T15:38:00.170Z,54.20
2023-05-10T15:40:29.412Z,54.10
2023-05-10T15:42:56.230Z,53.50
2023-05-10T15:45:23.502Z,53.50
2023-05-10T15:47:50.405Z,53.20
2023-05-10T15:50:17.656Z,53.20
2023-05-10T15:52:47.489Z,53.00
2023-05-10T15:55:17.619Z,52.90
2023-05-10T15:57:48.661Z,53.10
2023-05-10T16:00:18.475Z,53.30
2023-05-10T16:02:45.334Z,53.40
2023-05-10T16:05:12.263Z,53.40
2023-05-10T16:07:41.534Z,53.40
2023-05-10T16:10:13.894Z,53.50
2023-05-10T16:12:40.881Z,53.50
2023-05-10T16:15:08.824Z,53.90
2023-05-10T16:17:40.161Z,54.00
2023-05-10T16:20:08.028Z,53.90
2023-05-10T16:22:36.262Z,54.00
2023-05-10T16:25:03.226Z,53.90
2023-05-10T16:27:33.447Z,53.90
2023-05-10T16:30:03.144Z,54.00
2023-05-10T16:32:37.133Z,54.10
2023-05-10T16:35:09.577Z,53.70
2023-05-10T16:37:36.429Z,53.70
2023-05-10T16:40:08.963Z,53.90
2023-05-10T16:42:38.433Z,54.00
2023-05-10T16:45:11.712Z,54.10
2023-05-10T16:47:40.585Z,54.10
2023-05-10T16:50:10.218Z,54.10
2023-05-10T16:52:37.556Z,54.00
2023-05-10T16:55:09.333Z,54.10
2023-05-10T16:57:38.279Z,54.00
2023-05-10T17:00:08.529Z,54.10
2023-05-10T17:02:37.994Z,54.00
2023-05-10T17:05:07.957Z,54.00
2023-05-10T17:07:36.963Z,54.00
2023-05-10T17:10:07.041Z,54.00
2023-05-10T17:12:36.284Z,54.00
2023-05-10T17:15:06.479Z,54.00
2023-05-10T17:17:37.961Z,53.90
2023-05-10T17:20:10.496Z,54.00
2023-05-10T17:22:42.010Z,54.00
2023-05-10T17:25:11.302Z,54.10
2023-05-10T17:27:40.334Z,54.20
2023-05-10T17:30:13.456Z,54.10
2023-05-10T17:32:40.462Z,54.00
2023-05-10T17:35:08.153Z,54.10
2023-05-10T17:37:37.402Z,54.20
2023-05-10T17:40:07.868Z,54.30
2023-05-10T17:42:37.058Z,54.40
2023-05-10T17:45:09.504Z,54.30
2023-05-10T17:47:38.770Z,54.30
2023-05-10T17:50:06.951Z,54.30
2023-05-10T17:52:36.368Z,54.40
2023-05-10T17:55:06.230Z,54.30
2023-05-10T17:57:38.045Z,54.40
2023-05-10T18:00:09.063Z,54.30
2023-05-10T18:02:36.887Z,54.40
2023-05-10T18:05:05.093Z,54.40
2023-05-10T18:07:36.493Z,54.60
2023-05-10T18:10:03.418Z,54.50
2023-05-10T18:12:30.291Z,54.60
2023-05-10T18:14:57.585Z,54.50
2023-05-10T18:17:26.956Z,55.30
2023-05-10T18:19:53.923Z,54.60
2023-05-10T18:22:23.221Z,54.60
2023-05-10T18:24:54.488Z,54.60
2023-05-10T18:27:24.343Z,54.60
2023-05-10T18:29:53.756Z,54.80
2023-05-10T18:32:23.363Z,54.70
2023-05-10T18:34:50.367Z,54.70
2023-05-10T18:37:22.284Z,54.60
2023-05-10T18:39:51.355Z,54.60
2023-05-10T18:42:22.375Z,54.50
2023-05-10T18:44:51.455Z,54.50
2023-05-10T18:47:20.673Z,54.30
2023-05-10T18:49:49.917Z,54.40
2023-05-10T18:52:21.631Z,54.40
2023-05-10T18:54:50.226Z,54.30
2023-05-10T18:57:21.047Z,54.30
2023-05-10T18:59:48.814Z,54.20
2023-05-10T19:02:15.910Z,54.20
2023-05-10T19:04:45.353Z,54.20
2023-05-10T19:07:14.793Z,54.20
2023-05-10T19:09:43.862Z,54.30
2023-05-10T19:12:10.712Z,54.40
2023-05-10T19:14:39.705Z,54.40
2023-05-10T19:17:08.570Z,54.50
2023-05-10T19:19:38.669Z,54.50
2023-05-10T19:22:05.744Z,54.60
2023-05-10T19:24:37.265Z,54.70
2023-05-10T19:27:04.284Z,54.80
2023-05-10T19:29:31.149Z,55.00
2023-05-10T19:31:58.135Z,55.10
2023-05-10T19:34:25.117Z,55.20
2023-05-10T19:36:56.622Z,55.50
2023-05-10T19:39:27.042Z,55.60
2023-05-10T19:41:54.010Z,55.90
2023-05-10T19:44:25.271Z,56.10
2023-05-10T19:46:52.250Z,56.10
2023-05-10T19:49:28.994Z,56.30
2023-05-10T19:51:58.219Z,56.60
2023-05-10T19:54:24.999Z,56.70
2023-05-10T19:56:56.500Z,56.90
2023-05-10T19:59:25.943Z,56.90
2023-05-10T20:01:57.340Z,57.10
2023-05-10T20:04:28.974Z,57.30
2023-05-10T20:07:00.845Z,57.40
2023-05-10T20:09:29.772Z,57.60
2023-05-10T20:11:56.558Z,57.80
2023-05-10T20:14:25.505Z,58.00
2023-05-10T20:16:52.317Z,58.10
2023-05-10T20:19:19.245Z,58.20
2023-05-10T20:21:48.390Z,58.40
2023-05-10T20:24:15.290Z,58.60
2023-05-10T20:26:44.487Z,58.80
2023-05-10T20:29:13.580Z,59.10
2023-05-10T20:31:45.329Z,59.00
2023-05-10T20:34:14.780Z,59.20
2023-05-10T20:36:46.445Z,59.20
2023-05-10T20:39:15.636Z,59.40
2023-05-10T20:41:42.565Z,59.50
2023-05-10T20:44:11.809Z,59.60
2023-05-10T20:46:38.772Z,59.70
2023-05-10T20:49:09.130Z,59.70
2023-05-10T20:51:40.156Z,59.80
2023-05-10T20:54:06.968Z,60.50
2023-05-10T20:56:34.860Z,59.90
2023-05-10T20:59:04.043Z,60.00
2023-05-10T21:01:33.273Z,60.00
2023-05-10T21:04:02.122Z,60.20
2023-05-10T21:06:33.440Z,60.20
2023-05-10T21:09:00.281Z,60.20
2023-05-10T21:11:27.157Z,60.30
2023-05-10T21:14:01.778Z,60.40
2023-05-10T21:16:33.932Z,60.40
2023-05-10T21:19:07.172Z,60.50
2023-05-10T21:21:34.498Z,60.60
2023-05-10T21:24:01.368Z,60.60
2023-05-10T21:26:31.305Z,60.60
2023-05-10T21:28:59.216Z,60.70
2023-05-10T21:31:28.577Z,60.80
2023-05-10T21:33:58.488Z,60.80
2023-05-10T21:36:29.959Z,60.80
2023-05-10T21:38:59.179Z,61.00
2023-05-10T21:41:26.490Z,60.90
2023-05-10T21:43:56.460Z,61.00
2023-05-10T21:46:25.758Z,61.20
2023-05-10T21:48:57.319Z,61.20
2023-05-10T21:51:29.241Z,61.20
2023-05-10T21:53:56.269Z,61.50
2023-05-10T21:56:23.304Z,61.30
2023-05-10T21:58:50.278Z,61.40
2023-05-10T22:01:17.989Z,61.60
2023-05-10T22:03:46.126Z,61.70
2023-05-10T22:06:15.243Z,61.60
2023-05-10T22:08:42.048Z,61.70
2023-05-10T22:11:11.016Z,61.70
2023-05-10T22:13:37.829Z,61.80
2023-05-10T22:16:07.370Z,61.90
2023-05-10T22:18:36.985Z,61.90
2023-05-10T22:21:06.328Z,62.00
2023-05-10T22:23:37.613Z,62.00
2023-05-10T22:26:07.186Z,62.20
2023-05-10T22:28:36.180Z,62.00
2023-05-10T22:31:03.257Z,62.00
2023-05-10T22:33:30.239Z,62.10
2023-05-10T22:35:57.129Z,62.30
2023-05-10T22:38:26.068Z,62.30
2023-05-10T22:40:57.636Z,62.30
2023-05-10T22:43:26.856Z,62.40
2023-05-10T22:45:54.190Z,62.50
2023-05-10T22:48:23.153Z,62.50
2023-05-10T22:50:54.118Z,62.50
2023-05-10T22:53:20.998Z,62.60
2023-05-10T22:55:51.367Z,62.70
2023-05-10T22:58:20.570Z,62.70
2023-05-10T23:00:47.365Z,62.70
2023-05-10T23:03:14.657Z,62.80
2023-05-10T23:05:41.598Z,62.80
2023-05-10T23:08:08.485Z,62.90
2023-05-10T23:10:38.425Z,63.00
2023-05-10T23:13:05.930Z,63.10
2023-05-10T23:15:40.188Z,63.10
2023-05-10T23:18:09.907Z,63.10
2023-05-10T23:20:41.794Z,63.20
2023-05-10T23:23:09.338Z,63.20
2023-05-10T23:25:46.001Z,63.20
2023-05-10T23:28:12.993Z,63.30
2023-05-10T23:30:39.893Z,63.20
2023-05-10T23:33:08.263Z,63.20
2023-05-10T23:35:35.136Z,63.30
2023-05-10T23:38:02.007Z,63.30
2023-05-10T23:40:28.880Z,63.40
2023-05-10T23:42:58.340Z,63.50
2023-05-10T23:45:25.129Z,63.50
2023-05-10T23:47:54.233Z,63.60
2023-05-10T23:50:21.395Z,63.60
2023-05-10T23:52:50.804Z,63.60
2023-05-10T23:55:17.760Z,63.70
2023-05-10T23:57:44.602Z,63.70
